Time;durP1;ratioP1;P1;durP2;ratioP2;P2;SDS_P1;SDS_P2;PMS_P1;PMS_P2;Temp;Humidity;BMP_temperature;BMP_pressure;BME280_temperature;BME280_humidity;BME280_pressure;Samples;Min_cycle;Max_cycle;Signal;HPM_P1;HPM_P2
2021/09/28 00:01:59;;;;;;;9.63;2.22;;;14.90;96.10;;;;;;5093189;28;20035;-74
2021/09/28 00:04:25;;;;;;;8.65;2.13;;;15.00;95.80;;;;;;5092910;28;20024;-73
2021/09/28 00:06:50;;;;;;;14.85;3.08;;;15.00;95.60;;;;;;5092820;28;20032;-73
2021/09/28 00:09:16;;;;;;;5.68;2.03;;;14.90;95.80;;;;;;5092545;28;20117;-74
2021/09/28 00:11:42;;;;;;;6.70;1.65;;;14.90;95.90;;;;;;5092845;28;20046;-74
2021/09/28 00:14:08;;;;;;;9.13;2.45;;;15.00;95.80;;;;;;5092764;28;20518;-74
2021/09/28 00:16:33;;;;;;;10.27;2.50;;;15.00;95.70;;;;;;5093088;28;20107;-74
2021/09/28 00:18:59;;;;;;;13.48;2.58;;;15.00;95.60;;;;;;5096485;28;20016;-74
2021/09/28 00:21:25;;;;;;;10.77;2.63;;;15.00;95.60;;;;;;5096384;28;20062;-73
2021/09/28 00:23:51;;;;;;;11.10;2.47;;;15.00;95.50;;;;;;5096391;28;20019;-74
2021/09/28 00:26:17;;;;;;;7.95;1.98;;;14.90;95.70;;;;;;5096381;28;20391;-74
2021/09/28 00:28:42;;;;;;;7.97;2.38;;;15.00;95.50;;;;;;5096585;28;20053;-74
2021/09/28 00:31:08;;;;;;;10.13;2.10;;;14.90;95.70;;;;;;5096720;28;20108;-74
2021/09/28 00:33:34;;;;;;;8.70;2.25;;;14.90;95.80;;;;;;5096748;28;20056;-74
2021/09/28 00:35:59;;;;;;;11.90;2.53;;;14.90;96.40;;;;;;5096142;28;20020;-74
2021/09/28 00:38:25;;;;;;;7.30;2.08;;;14.80;96.30;;;;;;5096118;28;20016;-74
2021/09/28 00:40:51;;;;;;;7.22;2.00;;;14.90;96.20;;;;;;5096016;28;20028;-74
2021/09/28 00:43:17;;;;;;;8.60;1.75;;;14.90;96.10;;;;;;5096019;28;20046;-73
2021/09/28 00:45:42;;;;;;;7.53;1.98;;;14.90;95.90;;;;;;5095957;28;20539;-74
2021/09/28 00:48:08;;;;;;;11.13;2.00;;;15.00;95.80;;;;;;5095904;28;20476;-74
2021/09/28 00:50:34;;;;;;;10.63;2.65;;;15.00;95.80;;;;;;5095790;28;20020;-73
2021/09/28 00:53:00;;;;;;;8.88;2.20;;;14.90;96.20;;;;;;5096091;28;20099;-74
2021/09/28 00:55:28;;;;;;;6.32;1.80;;;14.80;96.10;;;;;;5095783;28;20027;-73
2021/09/28 00:57:56;;;;;;;6.20;1.67;;;14.80;95.90;;;;;;5095700;28;20024;-74
2021/09/28 01:00:22;;;;;;;7.45;1.73;;;14.70;96.00;;;;;;5095910;28;20024;-74
2021/09/28 01:02:48;;;;;;;10.73;1.92;;;14.70;96.00;;;;;;5095613;28;20031;-74
2021/09/28 01:05:14;;;;;;;6.97;2.35;;;14.60;96.40;;;;;;5095810;28;20028;-74
2021/09/28 01:07:39;;;;;;;6.25;1.98;;;14.60;96.60;;;;;;5094249;28;20032;-74
2021/09/28 01:10:08;;;;;;;6.57;2.17;;;14.60;96.90;;;;;;5095199;28;20094;-74
2021/09/28 01:12:33;;;;;;;7.05;1.98;;;14.70;96.90;;;;;;5095465;28;20012;-74
2021/09/28 01:14:59;;;;;;;8.68;1.65;;;14.60;96.70;;;;;;5095666;28;20020;-74
2021/09/28 01:17:25;;;;;;;9.60;2.00;;;14.60;96.80;;;;;;5095594;28;20020;-74
2021/09/28 01:19:51;;;;;;;11.35;2.45;;;14.70;96.70;;;;;;5095459;28;20123;-74
2021/09/28 01:22:17;;;;;;;8.20;2.03;;;14.80;96.70;;;;;;5095229;28;20056;-74
2021/09/28 01:24:45;;;;;;;6.85;1.83;;;14.80;96.70;;;;;;5095202;28;20028;-74
2021/09/28 01:27:11;;;;;;;8.07;2.00;;;14.80;97.20;;;;;;5095652;28;20016;-73
2021/09/28 01:29:37;;;;;;;11.10;2.55;;;14.70;97.70;;;;;;5094996;28;20366;-73
2021/09/28 01:32:04;;;;;;;8.80;2.50;;;14.80;96.90;;;;;;5095292;28;20032;-74
2021/09/28 01:34:29;;;;;;;7.03;1.88;;;14.70;97.10;;;;;;5095202;28;20042;-74
2021/09/28 01:36:55;;;;;;;10.68;2.47;;;14.70;97.30;;;;;;5094960;28;20472;-74
2021/09/28 01:39:21;;;;;;;9.73;2.40;;;14.60;97.40;;;;;;5095187;28;20024;-74
2021/09/28 01:41:48;;;;;;;11.02;2.45;;;14.60;97.60;;;;;;5095164;28;20021;-73
2021/09/28 01:44:16;;;;;;;6.68;2.00;;;14.50;98.20;;;;;;5094820;28;20111;-74
2021/09/28 01:46:43;;;;;;;9.60;1.95;;;14.50;97.90;;;;;;5094742;28;20087;-73
2021/09/28 01:49:11;;;;;;;9.55;2.05;;;14.50;97.80;;;;;;5094974;28;20107;-74
2021/09/28 01:51:37;;;;;;;11.95;2.83;;;14.50;98.10;;;;;;5094671;28;20028;-74
2021/09/28 01:54:04;;;;;;;6.72;1.60;;;14.40;98.30;;;;;;5094643;28;20024;-73
2021/09/28 01:56:30;;;;;;;12.02;2.13;;;14.30;98.90;;;;;;5094554;28;20036;-73
2021/09/28 01:58:57;;;;;;;6.75;1.70;;;14.30;99.20;;;;;;5094565;28;20054;-73
2021/09/28 02:01:24;;;;;;;6.30;1.83;;;14.20;99.00;;;;;;5094756;28;20055;-74
2021/09/28 02:03:50;;;;;;;5.70;1.55;;;14.30;98.50;;;;;;5094435;28;20111;-74
2021/09/28 02:06:20;;;;;;;6.88;1.70;;;14.30;98.30;;;;;;5094384;28;20115;-74
2021/09/28 02:08:46;;;;;;;8.73;1.92;;;14.40;98.00;;;;;;5094149;28;20511;-74
2021/09/28 02:11:12;;;;;;;14.73;3.10;;;14.40;98.30;;;;;;5094284;28;20067;-74
2021/09/28 02:13:38;;;;;;;6.88;2.05;;;14.30;98.20;;;;;;5094267;28;20103;-74
2021/09/28 02:16:04;;;;;;;5.97;2.10;;;14.40;98.60;;;;;;5094251;28;20054;-74
2021/09/28 02:18:30;;;;;;;5.65;1.73;;;14.50;98.30;;;;;;5094209;28;20511;-74
2021/09/28 02:20:55;;;;;;;11.38;2.22;;;14.50;98.30;;;;;;5094171;28;20032;-73
2021/09/28 02:23:21;;;;;;;6.53;2.20;;;14.50;98.60;;;;;;5094382;28;20076;-74
2021/09/28 02:25:47;;;;;;;10.38;2.60;;;14.50;98.40;;;;;;5094051;28;20103;-73
2021/09/28 02:28:12;;;;;;;5.13;1.65;;;14.50;98.30;;;;;;5094294;28;20024;-74
2021/09/28 02:30:39;;;;;;;5.63;1.90;;;14.40;98.30;;;;;;5094157;28;20476;-73
2021/09/28 02:33:05;;;;;;;7.18;1.70;;;14.40;98.60;;;;;;5093907;28;20008;-74
2021/09/28 02:35:32;;;;;;;4.13;1.50;;;14.40;98.60;;;;;;5093906;28;20017;-73
2021/09/28 02:37:58;;;;;;;7.07;1.80;;;14.50;98.90;;;;;;5093817;28;20016;-74
2021/09/28 02:40:25;;;;;;;10.43;1.67;;;14.50;98.10;;;;;;5093443;28;20146;-74
2021/09/28 02:42:51;;;;;;;6.30;1.67;;;14.50;97.80;;;;;;5093782;28;20027;-73
2021/09/28 02:45:17;;;;;;;5.22;1.55;;;14.50;97.90;;;;;;5094270;28;20046;-73
2021/09/28 02:47:43;;;;;;;6.70;1.90;;;14.50;98.30;;;;;;5093964;28;20020;-74
2021/09/28 02:50:09;;;;;;;10.38;2.05;;;14.50;98.40;;;;;;5093579;28;20025;-74
2021/09/28 02:52:35;;;;;;;8.32;1.60;;;14.40;98.80;;;;;;5093876;28;20017;-74
2021/09/28 02:55:00;;;;;;;7.57;1.63;;;14.40;98.80;;;;;;5093611;28;20024;-73
2021/09/28 02:57:26;;;;;;;8.50;1.58;;;14.50;98.70;;;;;;5093541;28;20020;-74
2021/09/28 02:59:51;;;;;;;6.70;1.85;;;14.50;98.60;;;;;;5093541;28;20083;-74
2021/09/28 03:02:17;;;;;;;4.95;1.30;;;14.40;98.70;;;;;;5093525;28;20027;-73
2021/09/28 03:04:43;;;;;;;9.00;2.00;;;14.40;99.00;;;;;;5093466;28;20059;-73
2021/09/28 03:07:08;;;;;;;9.70;1.60;;;14.30;99.10;;;;;;5093691;28;20028;-74
2021/09/28 03:09:34;;;;;;;7.55;2.05;;;14.30;99.00;;;;;;5093316;28;20044;-74
2021/09/28 03:11:59;;;;;;;5.85;1.52;;;14.30;99.30;;;;;;5093358;28;20020;-73
2021/09/28 03:14:27;;;;;;;6.57;1.83;;;14.30;99.30;;;;;;5093346;28;20032;-74
2021/09/28 03:16:53;;;;;;;6.28;2.15;;;14.40;99.30;;;;;;5093337;28;20016;-74
2021/09/28 03:19:20;;;;;;;5.75;1.58;;;14.40;99.20;;;;;;5093305;28;20119;-74
2021/09/28 03:21:47;;;;;;;8.68;2.28;;;14.20;99.50;;;;;;5093234;28;20491;-73
2021/09/28 03:24:14;;;;;;;6.10;1.73;;;14.10;99.90;;;;;;5093311;28;20028;-73
2021/09/28 03:26:40;;;;;;;9.60;2.25;;;14.10;99.90;;;;;;5093284;28;20035;-74
2021/09/28 03:29:06;;;;;;;7.80;2.22;;;14.20;99.90;;;;;;5093757;28;20103;-74
2021/09/28 03:31:31;;;;;;;6.80;1.98;;;14.30;99.90;;;;;;5093112;28;20031;-74
2021/09/28 03:33:57;;;;;;;6.63;2.17;;;14.20;99.90;;;;;;5093437;28;20034;-73
2021/09/28 03:36:23;;;;;;;10.95;2.40;;;14.10;99.90;;;;;;5093157;28;20055;-74
2021/09/28 03:38:48;;;;;;;10.48;2.40;;;14.00;99.90;;;;;;5093152;28;20064;-73
2021/09/28 03:41:15;;;;;;;8.63;2.35;;;14.00;99.90;;;;;;5093382;28;20027;-74
2021/09/28 03:43:40;;;;;;;10.80;2.00;;;14.00;99.90;;;;;;5093096;28;20034;-73
2021/09/28 03:46:06;;;;;;;9.02;2.38;;;14.00;99.90;;;;;;5093086;28;20028;-73
2021/09/28 03:48:32;;;;;;;10.82;2.08;;;14.00;99.90;;;;;;5093354;28;20032;-74
2021/09/28 03:50:57;;;;;;;7.57;1.80;;;14.00;99.90;;;;;;5092970;28;20035;-74
2021/09/28 03:53:23;;;;;;;11.20;2.05;;;13.90;99.90;;;;;;5095984;28;20031;-74
2021/09/28 03:55:50;;;;;;;8.57;2.33;;;13.80;99.90;;;;;;5096937;28;20024;-74
2021/09/28 03:58:16;;;;;;;6.15;1.75;;;13.70;99.90;;;;;;5097165;28;20023;-74
2021/09/28 04:00:43;;;;;;;7.20;1.77;;;13.70;99.90;;;;;;5097420;28;20085;-74
2021/09/28 04:03:09;;;;;;;11.32;2.25;;;13.70;99.90;;;;;;5096763;28;20399;-74
2021/09/28 04:05:36;;;;;;;8.57;2.10;;;13.60;99.90;;;;;;5096755;28;20448;-74
2021/09/28 04:08:03;;;;;;;9.63;1.85;;;13.60;99.90;;;;;;5096706;28;20024;-74
2021/09/28 04:10:28;;;;;;;9.90;1.80;;;13.70;99.90;;;;;;5096356;28;20047;-73
2021/09/28 04:12:54;;;;;;;8.25;1.77;;;13.70;99.90;;;;;;5096595;28;20028;-73
2021/09/28 04:15:24;;;;;;;4.95;1.92;;;13.80;99.90;;;;;;5097114;28;20024;-73
2021/09/28 04:17:50;;;;;;;8.63;1.92;;;13.80;99.90;;;;;;5096790;28;20020;-73
2021/09/28 04:20:15;;;;;;;8.00;2.00;;;13.70;99.90;;;;;;5096081;28;20119;-73
2021/09/28 04:22:42;;;;;;;5.72;1.70;;;13.70;99.90;;;;;;5096676;28;20074;-74
2021/09/28 04:25:08;;;;;;;7.18;2.30;;;13.70;99.90;;;;;;5096379;28;20027;-74
2021/09/28 04:27:35;;;;;;;8.43;1.90;;;13.60;99.90;;;;;;5096615;28;20024;-73
2021/09/28 04:30:01;;;;;;;7.45;2.22;;;13.70;99.90;;;;;;5096235;28;20027;-73
2021/09/28 04:32:27;;;;;;;9.98;2.42;;;13.70;99.90;;;;;;5096780;28;20021;-73
2021/09/28 04:34:52;;;;;;;8.68;1.65;;;13.70;99.90;;;;;;5094874;28;20028;-74
2021/09/28 04:37:18;;;;;;;10.60;1.65;;;13.80;99.90;;;;;;5096122;28;20032;-74
2021/09/28 04:39:43;;;;;;;9.18;2.40;;;13.90;99.90;;;;;;5096032;28;20027;-74
2021/09/28 04:42:09;;;;;;;8.10;2.00;;;13.90;99.90;;;;;;5096279;28;20032;-74
2021/09/28 04:44:35;;;;;;;7.13;2.30;;;14.00;99.90;;;;;;5095985;28;20031;-73
2021/09/28 04:47:00;;;;;;;8.88;2.00;;;13.90;99.90;;;;;;5095931;28;20020;-74
2021/09/28 04:49:26;;;;;;;8.02;1.95;;;13.90;99.90;;;;;;5095820;28;20100;-73
2021/09/28 04:51:52;;;;;;;11.85;2.03;;;13.90;99.90;;;;;;5095839;28;20020;-74
2021/09/28 04:54:17;;;;;;;8.73;2.22;;;13.90;99.90;;;;;;5096111;28;20496;-74
2021/09/28 04:56:43;;;;;;;9.52;2.03;;;14.00;99.90;;;;;;5096063;28;20020;-73
2021/09/28 04:59:09;;;;;;;12.10;2.83;;;13.90;99.90;;;;;;5095950;28;20031;-74
2021/09/28 05:01:34;;;;;;;10.63;2.05;;;14.00;99.90;;;;;;5095713;28;20034;-74
2021/09/28 05:04:00;;;;;;;9.63;2.33;;;14.00;99.90;;;;;;5095285;28;20487;-73
2021/09/28 05:06:26;;;;;;;9.75;2.17;;;14.10;99.90;;;;;;5095583;28;20090;-74
2021/09/28 05:08:52;;;;;;;9.18;2.95;;;14.20;99.90;;;;;;5095357;28;20026;-73
2021/09/28 05:11:17;;;;;;;10.60;2.13;;;14.10;99.90;;;;;;5095740;28;20099;-73
2021/09/28 05:13:43;;;;;;;7.53;1.70;;;14.20;99.90;;;;;;5095970;28;20024;-74
2021/09/28 05:16:09;;;;;;;11.23;2.42;;;14.20;99.90;;;;;;5095391;28;20028;-73
2021/09/28 05:18:35;;;;;;;7.15;2.00;;;14.20;99.90;;;;;;5095344;28;20020;-73
2021/09/28 05:21:01;;;;;;;10.07;2.13;;;14.20;99.90;;;;;;5095233;28;20028;-74
2021/09/28 05:23:28;;;;;;;8.95;1.90;;;14.10;99.90;;;;;;5095249;28;20036;-74
2021/09/28 05:25:55;;;;;;;8.90;1.92;;;14.10;99.90;;;;;;5095771;28;20035;-74
2021/09/28 05:28:20;;;;;;;9.38;2.45;;;14.10;99.90;;;;;;5095408;28;20016;-74
2021/09/28 05:30:47;;;;;;;8.55;1.88;;;14.10;99.90;;;;;;5095567;28;20031;-74
2021/09/28 05:33:13;;;;;;;7.25;1.88;;;14.10;99.90;;;;;;5095319;28;20044;-74
2021/09/28 05:35:39;;;;;;;8.68;2.65;;;14.10;99.90;;;;;;5094810;28;20108;-74
2021/09/28 05:38:05;;;;;;;12.48;2.33;;;14.10;99.90;;;;;;5094973;28;20062;-73
2021/09/28 05:40:31;;;;;;;10.07;2.42;;;14.10;99.90;;;;;;5094905;28;20023;-74
2021/09/28 05:42:57;;;;;;;7.97;1.60;;;14.00;99.90;;;;;;5093545;28;20365;-74
2021/09/28 05:45:23;;;;;;;10.43;2.35;;;14.00;99.90;;;;;;5094715;28;20032;-74
2021/09/28 05:47:48;;;;;;;11.88;3.00;;;14.00;99.90;;;;;;5095037;28;20028;-73
2021/09/28 05:50:15;;;;;;;11.90;2.60;;;14.00;99.90;;;;;;5094728;28;20028;-74
2021/09/28 05:52:42;;;;;;;8.93;2.15;;;14.00;99.90;;;;;;5094735;28;20479;-74
2021/09/28 05:55:08;;;;;;;12.18;2.03;;;13.90;99.90;;;;;;5094636;28;20028;-74
2021/09/28 05:57:34;;;;;;;9.57;2.55;;;13.90;99.90;;;;;;5094587;28;20024;-74
2021/09/28 06:00:00;;;;;;;14.95;3.00;;;13.80;99.90;;;;;;5094553;28;20035;-74
2021/09/28 06:02:25;;;;;;;7.72;2.00;;;13.80;99.90;;;;;;5094854;28;20035;-74
2021/09/28 06:04:51;;;;;;;16.00;2.72;;;13.80;99.90;;;;;;5094739;28;20490;-74
2021/09/28 06:07:17;;;;;;;7.35;1.48;;;13.80;99.90;;;;;;5094703;28;20024;-74
2021/09/28 06:09:44;;;;;;;10.25;2.92;;;13.80;99.90;;;;;;5094086;28;20415;-74
2021/09/28 06:12:11;;;;;;;7.65;2.25;;;13.70;99.90;;;;;;5094346;28;20019;-73
2021/09/28 06:14:37;;;;;;;9.07;2.20;;;13.70;99.90;;;;;;5092292;28;20020;-73
2021/09/28 06:17:03;;;;;;;11.30;2.38;;;13.70;99.90;;;;;;5094215;28;20024;-74
2021/09/28 06:19:30;;;;;;;9.98;2.50;;;13.70;99.90;;;;;;5094713;28;20024;-74
2021/09/28 06:21:57;;;;;;;12.25;2.15;;;13.60;99.90;;;;;;5094403;28;20023;-73
2021/09/28 06:24:23;;;;;;;8.77;1.85;;;13.60;99.90;;;;;;5094372;28;20052;-74
2021/09/28 06:26:49;;;;;;;11.02;2.00;;;13.70;99.90;;;;;;5094039;28;20492;-74
2021/09/28 06:29:15;;;;;;;10.77;2.10;;;13.60;99.90;;;;;;5094012;28;20434;-74
2021/09/28 06:31:42;;;;;;;11.55;2.20;;;13.70;99.90;;;;;;5093900;28;20013;-74
2021/09/28 06:34:09;;;;;;;8.80;1.95;;;13.80;99.90;;;;;;5094196;28;20024;-74
2021/09/28 06:36:35;;;;;;;8.00;2.00;;;13.70;99.90;;;;;;5093889;28;20017;-74
2021/09/28 06:39:01;;;;;;;12.85;2.90;;;13.70;99.90;;;;;;5094095;28;20107;-74
2021/09/28 06:41:27;;;;;;;10.32;2.03;;;13.70;99.90;;;;;;5093826;28;20066;-74
2021/09/28 06:43:53;;;;;;;11.18;2.25;;;13.70;99.90;;;;;;5093766;28;20397;-74
2021/09/28 06:46:19;;;;;;;10.18;2.67;;;13.80;99.90;;;;;;5093750;28;20027;-74
2021/09/28 06:48:45;;;;;;;12.02;2.25;;;13.80;99.90;;;;;;5093705;28;20484;-74
2021/09/28 06:51:11;;;;;;;7.80;1.73;;;13.90;99.90;;;;;;5088290;28;20028;-78
2021/09/28 06:53:37;;;;;;;5.25;2.35;;;14.00;99.90;;;;;;5073406;28;20032;-78
2021/09/28 06:56:03;;;;;;;7.32;2.25;;;14.00;99.90;;;;;;5107939;28;20024;-84
2021/09/28 06:58:29;;;;;;;8.68;2.00;;;14.00;99.90;;;;;;5081578;28;20028;-79
2021/09/28 07:00:55;;;;;;;6.68;2.33;;;14.00;99.90;;;;;;5074084;28;20062;-84
2021/09/28 07:03:21;;;;;;;10.02;2.42;;;14.10;99.90;;;;;;5083399;28;20459;-79
2021/09/28 07:05:47;;;;;;;12.25;2.95;;;14.10;99.90;;;;;;5092096;28;20027;-81
2021/09/28 07:08:13;;;;;;;11.80;2.13;;;14.20;99.90;;;;;;5093429;28;20056;-80
2021/09/28 07:10:39;;;;;;;7.57;2.08;;;14.20;99.90;;;;;;5090927;28;20079;-83
2021/09/28 07:13:04;;;;;;;13.82;2.50;;;14.30;99.90;;;;;;5073329;28;20020;-80
2021/09/28 07:15:30;;;;;;;12.18;2.63;;;14.30;99.90;;;;;;5074916;28;20489;-79
2021/09/28 07:17:56;;;;;;;16.30;3.03;;;14.30;99.90;;;;;;5093323;28;20035;-78
2021/09/28 07:20:21;;;;;;;12.43;2.25;;;14.30;99.90;;;;;;5093038;28;20024;-74
2021/09/28 07:22:48;;;;;;;9.38;2.28;;;14.40;99.90;;;;;;5074727;28;20016;-74
2021/09/28 07:25:14;;;;;;;9.30;2.58;;;14.30;99.90;;;;;;5088784;28;20407;-74
2021/09/28 07:27:40;;;;;;;10.93;2.25;;;14.40;99.90;;;;;;5085919;28;20035;-77
2021/09/28 07:30:07;;;;;;;10.52;2.20;;;14.50;99.90;;;;;;5077102;28;20029;-79
2021/09/28 07:32:33;;;;;;;11.35;2.42;;;14.50;99.90;;;;;;5077102;28;20122;-79
2021/09/28 07:34:59;;;;;;;13.70;2.60;;;14.50;99.90;;;;;;5088397;28;20107;-77
2021/09/28 07:37:28;;;;;;;11.00;1.90;;;14.60;99.90;;;;;;5077329;28;20024;-82
2021/09/28 07:39:57;;;;;;;11.52;2.17;;;14.70;99.90;;;;;;5075871;28;20507;-83
2021/09/28 07:42:24;;;;;;;9.93;2.53;;;14.90;99.90;;;;;;5076838;28;20037;-83
2021/09/28 07:44:53;;;;;;;7.47;2.53;;;15.00;99.90;;;;;;5077424;28;20024;-81
2021/09/28 07:47:19;;;;;;;10.73;2.92;;;15.00;99.90;;;;;;5080278;28;20032;-80
2021/09/28 07:49:45;;;;;;;9.98;1.90;;;15.10;99.90;;;;;;5084466;28;20107;-77
2021/09/28 07:52:11;;;;;;;10.85;2.55;;;15.20;99.90;;;;;;5092822;28;20154;-77
2021/09/28 07:54:38;;;;;;;7.97;2.58;;;15.20;99.90;;;;;;5077518;28;20024;-76
2021/09/28 07:57:05;;;;;;;15.13;2.60;;;15.20;99.90;;;;;;5080224;28;20020;-75
2021/09/28 07:59:31;;;;;;;10.57;1.90;;;15.30;99.90;;;;;;5097205;28;20051;-77
2021/09/28 08:01:57;;;;;;;11.32;2.67;;;15.40;99.90;;;;;;5097201;28;20040;-80
2021/09/28 08:04:23;;;;;;;12.27;2.08;;;15.40;99.90;;;;;;5096853;28;20066;-81
2021/09/28 08:06:48;;;;;;;11.18;2.05;;;15.50;99.90;;;;;;5097095;28;20024;-77
2021/09/28 08:09:15;;;;;;;12.30;2.80;;;15.60;99.90;;;;;;5080880;28;20102;-82
2021/09/28 08:11:41;;;;;;;14.48;2.70;;;15.90;99.90;;;;;;5076666;28;20027;-78
2021/09/28 08:14:07;;;;;;;18.45;2.88;;;16.20;99.90;;;;;;5076308;28;20103;-80
2021/09/28 08:16:34;;;;;;;11.15;2.05;;;16.50;99.90;;;;;;5091995;28;20012;-78
2021/09/28 08:19:00;;;;;;;14.00;2.40;;;16.50;99.90;;;;;;5096568;28;20483;-81
2021/09/28 08:21:26;;;;;;;8.07;2.03;;;16.50;99.90;;;;;;5096457;28;20464;-87
2021/09/28 08:23:52;;;;;;;12.52;2.38;;;16.40;99.90;;;;;;5092269;28;20025;-81
2021/09/28 08:29:10;;;;;;;6.95;2.20;;;16.50;99.90;;;;;;5085698;28;20074;-77
2021/09/28 08:31:39;;;;;;;12.70;2.65;;;16.40;99.90;;;;;;5076184;28;20485;-77
2021/09/28 08:34:05;;;;;;;11.70;2.78;;;16.30;99.90;;;;;;5090982;28;20032;-77
2021/09/28 08:36:31;;;;;;;12.05;2.22;;;16.40;99.90;;;;;;5096186;28;20016;-77
2021/09/28 08:38:57;;;;;;;8.25;1.95;;;16.60;99.90;;;;;;5093652;28;20031;-78
2021/09/28 08:41:23;;;;;;;10.13;2.67;;;16.80;99.90;;;;;;5094758;28;20027;-78
2021/09/28 08:43:49;;;;;;;10.45;2.17;;;16.70;99.90;;;;;;5086451;28;20119;-76
2021/09/28 08:46:16;;;;;;;8.15;1.65;;;16.60;99.90;;;;;;5082235;28;20027;-76
2021/09/28 08:48:43;;;;;;;7.43;2.08;;;16.50;99.90;;;;;;5096344;28;20055;-82
2021/09/28 08:51:09;;;;;;;13.95;2.40;;;16.60;99.90;;;;;;5081662;28;20444;-81
2021/09/28 08:53:36;;;;;;;11.30;1.98;;;16.70;99.90;;;;;;5074933;28;20025;-79
2021/09/28 08:56:05;;;;;;;8.77;2.20;;;16.80;99.90;;;;;;5075679;28;20027;-79
2021/09/28 08:58:32;;;;;;;9.05;2.00;;;17.10;99.90;;;;;;5075888;28;20028;-82
2021/09/28 09:01:06;;;;;;;10.23;2.13;;;17.30;99.90;;;;;;5075358;28;20094;-79
2021/09/28 09:03:34;;;;;;;11.82;2.00;;;17.60;99.70;;;;;;5092031;28;20028;-76
2021/09/28 09:06:01;;;;;;;14.63;1.95;;;18.20;98.50;;;;;;5095866;28;20027;-80
2021/09/28 09:08:29;;;;;;;10.65;2.50;;;18.60;96.60;;;;;;5095312;28;20035;-78
2021/09/28 09:11:07;;;;;;;7.57;1.92;;;18.50;96.90;;;;;;5088191;28;20041;-78
2021/09/28 09:13:35;;;;;;;11.00;2.55;;;18.60;96.30;;;;;;5075226;28;20017;-79
2021/09/28 09:16:01;;;;;;;6.93;1.58;;;18.40;96.70;;;;;;5082824;28;20507;-79
2021/09/28 09:18:26;;;;;;;8.25;1.77;;;18.30;96.80;;;;;;5095947;28;20099;-78
2021/09/28 09:20:52;;;;;;;11.15;2.03;;;18.50;96.80;;;;;;5095305;28;20020;-78
2021/09/28 09:23:35;;;;;;;8.05;2.00;;;18.50;96.80;;;;;;5095442;28;20039;-79
2021/09/28 09:26:12;;;;;;;10.43;2.25;;;18.50;96.60;;;;;;5094649;28;20028;-78
2021/09/28 09:28:42;;;;;;;10.27;2.20;;;18.50;96.40;;;;;;5095844;28;20028;-78
2021/09/28 09:31:22;;;;;;;9.02;2.47;;;18.50;96.70;;;;;;5095275;28;20054;-84
2021/09/28 09:33:52;;;;;;;11.57;2.17;;;18.40;97.00;;;;;;5095717;28;20024;-80
2021/09/28 09:36:20;;;;;;;6.05;1.70;;;18.40;96.90;;;;;;5087940;28;20074;-80
2021/09/28 09:38:52;;;;;;;8.75;2.08;;;18.30;96.70;;;;;;5075386;28;20020;-77
2021/09/28 09:41:18;;;;;;;8.95;1.83;;;18.30;97.40;;;;;;5074739;28;20029;-80
2021/09/28 09:43:48;;;;;;;6.30;1.85;;;18.20;97.10;;;;;;5074941;28;20020;-78
2021/09/28 09:46:19;;;;;;;7.18;2.33;;;18.10;97.30;;;;;;5074977;28;20017;-77
2021/09/28 09:48:48;;;;;;;8.35;2.17;;;18.00;97.20;;;;;;5087830;28;20024;-78
2021/09/28 09:51:16;;;;;;;8.43;2.63;;;17.90;97.70;;;;;;5080383;28;20020;-77
2021/09/28 09:54:00;;;;;;;9.23;2.08;;;18.00;97.50;;;;;;5095038;28;20051;-80
2021/09/28 09:56:50;;;;;;;10.70;2.63;;;18.00;98.00;;;;;;5095017;28;20019;-84
2021/09/28 09:59:21;;;;;;;8.25;2.15;;;18.20;97.80;;;;;;5093072;28;20024;-82
2021/09/28 10:01:48;;;;;;;8.05;2.38;;;18.30;97.80;;;;;;5093557;28;20035;-82
2021/09/28 10:04:19;;;;;;;7.72;2.20;;;18.50;96.70;;;;;;5092595;28;20063;-78
2021/09/28 10:06:45;;;;;;;8.90;2.42;;;18.50;96.20;;;;;;5085411;28;20032;-77
2021/09/28 10:09:14;;;;;;;12.75;2.10;;;18.60;96.30;;;;;;5092286;28;20067;-76
2021/09/28 10:11:40;;;;;;;9.30;2.00;;;18.70;95.90;;;;;;5093981;28;20448;-77
2021/09/28 10:14:06;;;;;;;7.75;2.03;;;18.70;96.00;;;;;;5090759;28;20024;-78
2021/09/28 10:16:38;;;;;;;12.05;2.85;;;18.70;95.20;;;;;;5074383;28;20039;-75
2021/09/28 10:19:26;;;;;;;5.53;1.48;;;18.90;95.60;;;;;;5079966;28;20059;-80
2021/09/28 10:21:52;;;;;;;9.82;1.90;;;19.10;95.00;;;;;;5077547;28;20387;-76
2021/09/28 10:24:17;;;;;;;8.10;1.90;;;19.20;94.40;;;;;;5092131;28;20392;-76
2021/09/28 10:26:47;;;;;;;11.80;2.05;;;19.30;93.50;;;;;;5093694;28;20024;-75
2021/09/28 10:29:43;;;;;;;9.35;2.47;;;19.30;94.00;;;;;;5093198;28;20608;-76
2021/09/28 10:32:24;;;;;;;7.88;1.73;;;19.30;93.60;;;;;;5093187;28;20040;-76
2021/09/28 10:35:08;;;;;;;7.85;2.05;;;19.30;93.80;;;;;;5093125;28;20097;-75
2021/09/28 10:37:56;;;;;;;8.40;2.08;;;19.10;94.40;;;;;;5093093;28;20085;-75
2021/09/28 10:40:22;;;;;;;8.30;1.95;;;19.00;94.30;;;;;;5094136;28;20414;-76
2021/09/28 10:42:50;;;;;;;13.38;2.42;;;18.90;94.20;;;;;;5093795;28;20033;-76
2021/09/28 10:45:38;;;;;;;8.13;1.75;;;18.70;94.80;;;;;;5094078;28;20418;-75
2021/09/28 10:48:18;;;;;;;6.45;1.98;;;18.70;95.70;;;;;;5080601;28;20036;-76
2021/09/28 10:50:46;;;;;;;9.55;1.95;;;18.50;97.30;;;;;;5093972;28;20024;-76
2021/09/28 10:53:20;;;;;;;10.00;2.35;;;18.40;97.80;;;;;;5093665;28;20031;-76
2021/09/28 10:55:58;;;;;;;6.43;1.67;;;18.10;98.10;;;;;;5093676;28;20024;-75
2021/09/28 10:58:25;;;;;;;4.05;1.30;;;17.70;99.40;;;;;;5093615;28;20391;-75
2021/09/28 11:00:53;;;;;;;4.93;1.70;;;17.50;99.90;;;;;;5093474;28;20055;-76
2021/09/28 11:03:47;;;;;;;6.38;2.00;;;17.40;99.90;;;;;;5093568;28;20452;-76
2021/09/28 11:06:14;;;;;;;4.40;1.45;;;17.40;99.90;;;;;;5093818;28;20028;-75
2021/09/28 11:08:41;;;;;;;5.28;1.23;;;17.40;99.90;;;;;;5093442;28;20434;-75
2021/09/28 11:11:11;;;;;;;7.13;1.60;;;17.50;99.90;;;;;;5093401;28;20024;-75
2021/09/28 11:13:42;;;;;;;5.07;1.60;;;17.40;99.90;;;;;;5093335;28;20048;-74
2021/09/28 11:16:10;;;;;;;3.35;1.10;;;17.40;99.80;;;;;;5093382;28;20073;-75
2021/09/28 11:18:52;;;;;;;5.68;1.33;;;17.70;99.90;;;;;;5093365;28;20101;-75
2021/09/28 11:21:17;;;;;;;4.63;1.10;;;18.10;99.30;;;;;;5093278;28;20020;-75
2021/09/28 11:23:50;;;;;;;3.78;1.25;;;18.30;98.60;;;;;;5093561;28;20024;-75
2021/09/28 11:26:17;;;;;;;6.25;1.30;;;18.50;97.60;;;;;;5093617;28;20111;-74
2021/09/28 11:28:47;;;;;;;2.38;1.02;;;18.60;98.50;;;;;;5093882;28;20024;-75
2021/09/28 11:31:13;;;;;;;5.88;1.27;;;18.70;97.60;;;;;;5091880;28;20372;-74
2021/09/28 11:33:41;;;;;;;5.40;0.90;;;18.70;96.80;;;;;;5093216;28;20040;-74
2021/09/28 11:36:10;;;;;;;6.53;1.00;;;18.60;97.10;;;;;;5093221;28;20016;-75
2021/09/28 11:38:38;;;;;;;1.95;0.80;;;18.60;96.60;;;;;;5093460;28;20020;-77
2021/09/28 11:41:08;;;;;;;5.47;1.17;;;18.60;96.20;;;;;;5093173;28;20031;-78
2021/09/28 11:43:35;;;;;;;5.70;1.17;;;18.70;97.10;;;;;;5091625;28;20403;-76
2021/09/28 11:46:01;;;;;;;4.90;1.02;;;18.80;96.80;;;;;;5093068;28;20502;-77
2021/09/28 11:48:28;;;;;;;4.60;1.00;;;18.70;96.90;;;;;;5093069;28;20028;-76
2021/09/28 11:50:54;;;;;;;4.60;1.10;;;18.50;96.70;;;;;;5092960;28;20472;-76
2021/09/28 11:53:20;;;;;;;4.95;1.25;;;18.40;97.80;;;;;;5093027;28;20024;-75
2021/09/28 11:55:47;;;;;;;6.55;1.58;;;18.50;97.30;;;;;;5093032;28;20024;-76
2021/09/28 11:58:13;;;;;;;5.53;1.35;;;18.70;97.10;;;;;;5093281;28;20518;-75
2021/09/28 12:00:43;;;;;;;4.47;1.17;;;18.90;96.90;;;;;;5092956;28;20052;-77
2021/09/28 12:03:09;;;;;;;5.10;1.38;;;18.90;95.30;;;;;;5092969;28;20028;-77
2021/09/28 12:08:22;;;;;;;6.32;1.40;;;19.00;95.20;;;;;;5092642;28;20032;-76
2021/09/28 12:10:48;;;;;;;5.90;1.20;;;19.10;95.30;;;;;;5092433;28;20504;-75
2021/09/28 12:13:27;;;;;;;2.90;1.20;;;19.10;95.50;;;;;;5093848;28;20040;-75
2021/09/28 12:16:11;;;;;;;4.47;1.30;;;19.10;95.90;;;;;;5096934;28;20030;-77
2021/09/28 12:18:37;;;;;;;5.38;1.15;;;19.20;94.20;;;;;;5097145;28;20791;-76
2021/09/28 12:21:10;;;;;;;4.38;1.30;;;19.30;93.20;;;;;;5096427;28;20024;-74
2021/09/28 12:23:36;;;;;;;5.60;1.20;;;19.30;94.20;;;;;;5096624;28;20544;-76
2021/09/28 12:26:01;;;;;;;4.60;1.20;;;19.30;93.20;;;;;;5097229;28;20103;-76
2021/09/28 12:28:30;;;;;;;5.35;1.27;;;19.40;93.20;;;;;;5096367;28;20032;-75
2021/09/28 12:31:02;;;;;;;4.32;1.20;;;19.40;92.90;;;;;;5096257;28;20020;-75
2021/09/28 12:33:28;;;;;;;5.75;1.33;;;19.40;92.50;;;;;;5096895;28;20483;-76
2021/09/28 12:35:59;;;;;;;5.28;1.52;;;19.50;91.60;;;;;;5096252;28;20044;-75
2021/09/28 12:38:26;;;;;;;6.20;1.88;;;19.50;92.30;;;;;;5096523;28;20074;-76
2021/09/28 12:41:02;;;;;;;3.95;1.08;;;19.60;92.10;;;;;;5096127;28;20024;-76
2021/09/28 12:43:28;;;;;;;6.60;1.30;;;19.60;91.60;;;;;;5096666;28;20081;-75
2021/09/28 12:45:56;;;;;;;5.78;1.55;;;19.60;92.60;;;;;;5096050;28;20032;-76
2021/09/28 12:48:43;;;;;;;8.95;1.40;;;19.60;92.30;;;;;;5095969;28;20026;-77
2021/09/28 12:51:20;;;;;;;7.85;2.15;;;19.70;91.70;;;;;;5096318;28;20055;-77